| time (UTC) | temp F | wind direction | speed MPH | gust MPH | rain 1hr in | rain 24hr in | rain mn in | humidity % | barometer mb |
| 20260903100942 | 78 | 270 | 4.0 | 16.0 | 0.00 | 0.00 | 0.00 | 44 | 1034.3 |
| 20260903100442 | 78 | 270 | 9.0 | 14.0 | 0.00 | 0.00 | 0.00 | 44 | 1031.1 |
| 20260903100041 | 77 | 225 | 7.0 | 10.0 | 0.00 | 0.00 | 0.00 | 46 | 1034.3 |
| 20260903095942 | 76 | 202 | 10.0 | 10.0 | 0.00 | 0.00 | 0.00 | 46 | 1031.1 |
| 20260903095442 | 75 | 270 | 12.0 | 14.0 | 0.00 | 0.00 | 0.00 | 46 | 1040.6 |
| 20260903094942 | 75 | 292 | 4.0 | 12.0 | 0.00 | 0.00 | 0.00 | 45 | 1031.2 |
| 20260903094442 | 75 | 225 | 4.0 | 15.0 | 0.00 | 0.00 | 0.00 | 46 | 1037.5 |
| 20260903093942 | 75 | 225 | 3.0 | 11.0 | 0.00 | 0.00 | 0.00 | 46 | 1018.5 |
| 20260903093442 | 76 | 292 | 4.0 | 12.0 | 0.00 | 0.00 | 0.00 | 43 | 1021.7 |
| 20260903092942 | 77 | 247 | 4.0 | 15.0 | 0.00 | 0.00 | 0.00 | 45 | 1021.7 |
| 20260903092741 | 77 | 270 | 6.0 | 9.0 | 0.00 | 0.00 | 0.00 | 44 | 1028.0 |
| 20260903092442 | 78 | 292 | 3.0 | 11.0 | 0.00 | 0.00 | 0.00 | 44 | 1028.0 |
| 20260903091942 | 78 | 270 | 3.0 | 12.0 | 0.00 | 0.00 | 0.00 | 45 | 1018.3 |
| 20260903091442 | 78 | 225 | 7.0 | 11.0 | 0.00 | 0.00 | 0.00 | 45 | 1043.8 |
| 20260903090943 | 77 | 270 | 10.0 | 10.0 | 0.00 | 0.00 | 0.00 | 45 | 1037.5 |
| 20260903090442 | 77 | 247 | 6.0 | 8.0 | 0.00 | 0.00 | 0.00 | 44 | 1024.8 |
| 20260903085948 | 77 | 247 | 2.0 | 8.0 | 0.00 | 0.00 | 0.00 | 45 | 1034.3 |
| 20260903085942 | 77 | 247 | 2.0 | 8.0 | 0.00 | 0.00 | 0.00 | 45 | 1034.3 |
| 20260903085441 | 78 | 225 | 2.0 | 13.0 | 0.00 | 0.00 | 0.00 | 45 | 1037.5 |
| 20260903084942 | 78 | 247 | 8.0 | 9.0 | 0.00 | 0.00 | 0.00 | 45 | 1028.0 |
| 20260903084442 | 78 | 225 | 2.0 | 7.0 | 0.00 | 0.00 | 0.00 | 45 | 1021.6 |
| 20260903083942 | 80 | 247 | 2.0 | 6.0 | 0.00 | 0.00 | 0.00 | 43 | 1034.3 |
| 20260903083442 | 82 | 292 | 4.0 | 12.0 | 0.00 | 0.00 | 0.00 | 42 | 1050.1 |
| 20260903082942 | 84 | 270 | 6.0 | 6.0 | 0.00 | 0.00 | 0.00 | 43 | 1031.1 |
| 20260903082442 | 84 | 292 | 4.0 | 6.0 | 0.00 | 0.00 | 0.00 | 42 | 1043.8 |
| 20260903082141 | 85 | 270 | 2.0 | 8.0 | 0.00 | 0.00 | 0.00 | 41 | 1031.1 |
| 20260903081942 | 86 | 315 | 3.0 | 8.0 | 0.00 | 0.00 | 0.00 | 41 | 1043.8 |
| 20260903081442 | 87 | 247 | 3.0 | 6.0 | 0.00 | 0.00 | 0.00 | 42 | 1031.1 |
| 20260903080942 | 88 | 270 | 2.0 | 5.0 | 0.00 | 0.00 | 0.00 | 40 | 1053.2 |
| 20260903080442 | 88 | 225 | 2.0 | 3.0 | 0.00 | 0.00 | 0.00 | 41 | 1046.9 |
| 20260903075942 | 88 | 270 | 0.0 | 5.0 | 0.00 | 0.00 | 0.00 | 42 | 1050.1 |
| 20260903075442 | 88 | 180 | 3.0 | 4.0 | 0.00 | 0.00 | 0.00 | 43 | 1018.5 |
| 20260903074942 | 87 | 90 | 2.0 | 5.0 | 0.00 | 0.00 | 0.00 | 44 | 1034.3 |
| 20260903074841 | 87 | 135 | 1.0 | 5.0 | 0.00 | 0.00 | 0.00 | 44 | 1031.2 |
| 20260903074442 | 86 | 202 | 2.0 | 6.0 | 0.00 | 0.00 | 0.00 | 44 | 1059.5 |
| 20260903073942 | 86 | 225 | 4.0 | 6.0 | 0.00 | 0.00 | 0.00 | 45 | 1028.0 |
| 20260903073442 | 86 | 180 | 2.0 | 6.0 | 0.00 | 0.00 | 0.00 | 44 | 1040.6 |
| 20260903072942 | 87 | 202 | 2.0 | 6.0 | 0.00 | 0.00 | 0.00 | 44 | 1031.1 |
| 20260903072442 | 87 | 202 | 4.0 | 6.0 | 0.00 | 0.00 | 0.00 | 44 | 1037.5 |
| 20260903071942 | 87 | 180 | 3.0 | 5.0 | 0.00 | 0.00 | 0.00 | 45 | 1034.3 |
| 20260903071541 | 87 | 270 | 3.0 | 4.0 | 0.00 | 0.00 | 0.00 | 44 | 1043.8 |
| 20260903071442 | 87 | 270 | 1.0 | 4.0 | 0.00 | 0.00 | 0.00 | 45 | 1043.8 |
| 20260903070942 | 87 | 270 | 2.0 | 3.0 | 0.00 | 0.00 | 0.00 | 47 | 1040.6 |
| 20260903070442 | 85 | 247 | 0.0 | 3.0 | 0.00 | 0.00 | 0.00 | 50 | 1050.0 |
| 20260903065442 | 80 | 202 | 2.0 | 3.0 | 0.00 | 0.00 | 0.00 | 55 | 1043.7 |
| 20260903064942 | 77 | 202 | 2.0 | 2.0 | 0.00 | 0.00 | 0.00 | 57 | 1053.2 |
| 20260903064241 | 77 | 225 | 3.0 | 3.0 | 0.00 | 0.00 | 0.00 | 55 | 1021.7 |
| 20260903063942 | 77 | 270 | 2.0 | 5.0 | 0.00 | 0.00 | 0.00 | 55 | 1065.8 |
| 20260903063442 | 78 | 22 | 1.0 | 27.0 | 0.00 | 0.00 | 0.00 | 54 | 1040.6 |
| 20260903062942 | 79 | 270 | 0.0 | 4.0 | 0.00 | 0.00 | 0.00 | 53 | 1062.7 |
| 20260903062442 | 82 | 225 | 4.0 | 5.0 | 0.00 | 0.00 | 0.00 | 52 | 1043.8 |
| 20260903061942 | 82 | 270 | 4.0 | 4.0 | 0.00 | 0.00 | 0.00 | 55 | 1023.4 |
| 20260903061442 | 81 | 157 | 0.0 | 3.0 | 0.00 | 0.00 | 0.00 | 58 | 1065.2 |
| 20260903060941 | 79 | 292 | 0.0 | 4.0 | 0.00 | 0.00 | 0.00 | 63 | 1067.4 |
| 20260903060442 | 75 | 247 | 1.0 | 2.0 | 0.00 | 0.00 | 0.00 | 70 | 1049.4 |
| 20260903055942 | 71 | 247 | 0.0 | 3.0 | 0.00 | 0.00 | 0.00 | 75 | 1082.3 |
| 20260903055442 | 69 | 247 | 2.0 | 2.0 | 0.00 | 0.00 | 0.00 | 76 | 1046.9 |
| 20260903054942 | 68 | 202 | 1.0 | 4.0 | 0.00 | 0.00 | 0.00 | 76 | 1058.1 |
| 20260903054442 | 68 | 135 | 0.0 | 1.0 | 0.00 | 0.00 | 0.00 | 79 | 1063.7 |
| 20260903053942 | 67 | 157 | 1.0 | 2.0 | 0.00 | 0.00 | 0.00 | 82 | 1011.3 |
| 20260903053641 | 66 | 225 | 0.0 | 2.0 | 0.00 | 0.00 | 0.00 | 82 | 1063.3 |
| 20260903053442 | 65 | 202 | 2.0 | 3.0 | 0.00 | 0.00 | 0.00 | 82 | 1063.2 |
| 20260903052943 | 64 | 202 | 3.0 | 4.0 | 0.00 | 0.00 | 0.00 | 83 | 1044.7 |
| 20260903052442 | 64 | 135 | 2.0 | 4.0 | 0.00 | 0.00 | 0.00 | 83 | 1035.3 |
| 20260903051942 | 63 | 202 | 1.0 | 3.0 | 0.00 | 0.00 | 0.00 | 84 | 1053.2 |
| 20260903051442 | 63 | 225 | 0.0 | 2.0 | 0.00 | 0.00 | 0.00 | 84 | 1078.4 |
| 20260903050942 | 63 | 180 | 0.0 | 2.0 | 0.00 | 0.00 | 0.00 | 86 | 1072.9 |
| 20260903050442 | 62 | 135 | 1.0 | 2.0 | 0.00 | 0.00 | 0.00 | 87 | 1057.1 |
| 20260903050341 | 62 | 135 | 1.0 | 2.0 | 0.00 | 0.00 | 0.00 | 87 | 1083.1 |
| 20260903045942 | 61 | 112 | 0.0 | 0.0 | 0.00 | 0.00 | 0.00 | 86 | 1089.1 |
| 20260903045442 | 60 | 157 | 0.0 | 0.0 | 0.00 | 0.00 | 0.00 | 85 | 1075.7 |
| 20260903044942 | 60 | 135 | 0.0 | 0.0 | 0.00 | 0.00 | 0.00 | 85 | 993.9 |
| 20260903044442 | 59 | 157 | 0.0 | 0.0 | 0.00 | 0.00 | 0.00 | 85 | 1078.4 |
| 20260903043943 | 59 | 112 | 0.0 | 2.0 | 0.00 | 0.00 | 0.00 | 85 | 1034.3 |
| 20260903043442 | 59 | 135 | 0.0 | 0.0 | 0.00 | 0.00 | 0.00 | 85 | 1028.0 |
| 20260903043042 | 58 | 157 | 0.0 | 0.0 | 0.00 | 0.00 | 0.00 | 85 | 1029.4 |
| 20260903042943 | 58 | 157 | 0.0 | 0.0 | 0.00 | 0.00 | 0.00 | 85 | 1047.9 |
| 20260903042442 | 58 | 67 | 0.0 | 0.0 | 0.00 | 0.00 | 0.00 | 84 | 1053.2 |
| 20260903041942 | 58 | 67 | 0.0 | 0.0 | 0.00 | 0.00 | 0.00 | 84 | 1050.5 |
| 20260903041443 | 58 | 112 | 0.0 | 0.0 | 0.00 | 0.00 | 0.00 | 84 | 1062.7 |
| 20260903040943 | 58 | 67 | 0.0 | 0.0 | 0.00 | 0.00 | 0.00 | 85 | 1053.3 |
| 20260903040443 | 58 | 67 | 0.0 | 0.0 | 0.00 | 0.00 | 0.00 | 85 | 1034.3 |
| 20260903035943 | 58 | 337 | 0.0 | 0.0 | 0.00 | 0.00 | 0.00 | 85 | 1053.2 |
| 20260903035742 | 58 | 337 | 0.0 | 0.0 | 0.00 | 0.00 | 0.00 | 85 | 1059.5 |
| 20260903035443 | 58 | 0 | 0.0 | 0.0 | 0.00 | 0.00 | 0.00 | 85 | 1068.1 |
| 20260903034943 | 58 | 157 | 0.0 | 2.0 | 0.00 | 0.00 | 0.00 | 85 | 1043.8 |
| 20260903034443 | 58 | 135 | 2.0 | 2.0 | 0.00 | 0.00 | 0.00 | 85 | 1046.9 |
| 20260903033943 | 58 | 157 | 1.0 | 2.0 | 0.00 | 0.00 | 0.00 | 85 | 1050.1 |
| 20260903033443 | 58 | 135 | 1.0 | 2.0 | 0.00 | 0.00 | 0.00 | 85 | 1043.8 |
| 20260903032943 | 58 | 270 | 1.0 | 2.0 | 0.00 | 0.00 | 0.00 | 85 | 1043.8 |
| 20260903032442 | 58 | 247 | 0.0 | 2.0 | 0.00 | 0.00 | 0.00 | 85 | 1059.2 |
| 20260903031943 | 58 | 247 | 2.0 | 4.0 | 0.00 | 0.00 | 0.00 | 85 | 1056.4 |
| 20260903031443 | 58 | 202 | 0.0 | 2.0 | 0.00 | 0.00 | 0.00 | 85 | 1008.8 |
| 20260903030943 | 58 | 157 | 0.0 | 2.0 | 0.00 | 0.00 | 0.00 | 85 | 1031.2 |
| 20260903030443 | 58 | 202 | 1.0 | 2.0 | 0.00 | 0.00 | 0.00 | 85 | 1062.7 |
| 20260903025943 | 59 | 337 | 0.0 | 0.0 | 0.00 | 0.00 | 0.00 | 85 | 1047.0 |
| 20260903025443 | 59 | 0 | 0.0 | 3.0 | 0.00 | 0.00 | 0.00 | 85 | 1048.2 |
| 20260903025142 | 59 | 292 | 0.0 | 3.0 | 0.00 | 0.00 | 0.00 | 85 | 1056.4 |
| 20260903024943 | 59 | 225 | 3.0 | 3.0 | 0.00 | 0.00 | 0.00 | 85 | 1031.2 |
| 20260903024443 | 58 | 202 | 2.0 | 2.0 | 0.00 | 0.00 | 0.00 | 85 | 1053.2 |
| 20260903024024 | 58 | 225 | 0.0 | 0.0 | 0.00 | 0.00 | 0.00 | 85 | 1042.9 |
| 20260903023943 | 58 | 225 | 0.0 | 0.0 | 0.00 | 0.00 | 0.00 | 85 | 1042.9 |
| 20260903023443 | 58 | 180 | 0.0 | 0.0 | 0.00 | 0.00 | 0.00 | 85 | 1050.1 |
| 20260903022943 | 58 | 247 | 0.0 | 2.0 | 0.00 | 0.00 | 0.00 | 85 | 1053.2 |
| 20260903022443 | 58 | 157 | 0.0 | 2.0 | 0.00 | 0.00 | 0.00 | 85 | 1004.0 |
| 20260903021943 | 58 | 202 | 0.0 | 0.0 | 0.00 | 0.00 | 0.00 | 85 | 1050.1 |
| 20260903021842 | 58 | 225 | 0.0 | 0.0 | 0.00 | 0.00 | 0.00 | 85 | 1046.9 |
| 20260903021443 | 58 | 202 | 0.0 | 0.0 | 0.00 | 0.00 | 0.00 | 85 | 1056.3 |
| 20260903020943 | 58 | 180 | 0.0 | 1.0 | 0.00 | 0.00 | 0.00 | 86 | 1043.8 |
| 20260903020443 | 58 | 202 | 1.0 | 2.0 | 0.00 | 0.00 | 0.00 | 86 | 1034.3 |
| 20260903015943 | 58 | 247 | 0.0 | 2.0 | 0.00 | 0.00 | 0.00 | 86 | 1059.5 |
| 20260903015443 | 58 | 270 | 0.0 | 1.0 | 0.00 | 0.00 | 0.00 | 86 | 1062.7 |
| 20260903014943 | 58 | 270 | 0.0 | 0.0 | 0.00 | 0.00 | 0.00 | 86 | 1050.1 |
| 20260903014542 | 58 | 315 | 0.0 | 0.0 | 0.00 | 0.00 | 0.00 | 86 | 1036.2 |
| 20260903014443 | 58 | 337 | 0.0 | 0.0 | 0.00 | 0.00 | 0.00 | 86 | 1064.5 |
| 20260903013943 | 58 | 135 | 0.0 | 0.0 | 0.00 | 0.00 | 0.00 | 86 | 1043.8 |
| 20260903013443 | 58 | 112 | 0.0 | 0.0 | 0.00 | 0.00 | 0.00 | 86 | 1040.6 |
| 20260903012943 | 58 | 0 | 0.0 | 0.0 | 0.00 | 0.00 | 0.00 | 86 | 1033.9 |
| 20260903012443 | 58 | 270 | 0.0 | 0.0 | 0.00 | 0.00 | 0.00 | 86 | 1060.7 |
| 20260903011943 | 58 | 270 | 0.0 | 0.0 | 0.00 | 0.00 | 0.00 | 86 | 1053.2 |
| 20260903011443 | 57 | 270 | 0.0 | 0.0 | 0.00 | 0.00 | 0.00 | 86 | 1040.5 |
| 20260903011242 | 57 | 247 | 0.0 | 0.0 | 0.00 | 0.00 | 0.00 | 86 | 1018.4 |
| 20260903010943 | 57 | 180 | 0.0 | 0.0 | 0.00 | 0.00 | 0.00 | 86 | 1061.8 |
| 20260903010443 | 57 | 157 | 0.0 | 0.0 | 0.00 | 0.00 | 0.00 | 86 | 1014.0 |
| 20260903005943 | 57 | 157 | 0.0 | 0.0 | 0.00 | 0.00 | 0.00 | 86 | 1047.0 |
| 20260903005443 | 57 | 157 | 0.0 | 1.0 | 0.00 | 0.00 | 0.00 | 86 | 1044.3 |
| 20260903004943 | 57 | 135 | 1.0 | 1.0 | 0.00 | 0.00 | 0.00 | 86 | 1050.2 |
| 20260903004443 | 56 | 180 | 0.0 | 0.0 | 0.00 | 0.00 | 0.00 | 86 | 1067.9 |
| 20260903003942 | 56 | 202 | 0.0 | 0.0 | 0.00 | 0.00 | 0.00 | 85 | 1062.7 |
| 20260903003443 | 56 | 270 | 0.0 | 0.0 | 0.00 | 0.00 | 0.00 | 85 | 1037.5 |
| 20260903002943 | 56 | 247 | 0.0 | 0.0 | 0.00 | 0.00 | 0.00 | 85 | 1053.2 |
| 20260903002443 | 56 | 247 | 0.0 | 0.0 | 0.00 | 0.00 | 0.00 | 85 | 1045.8 |
| 20260903001943 | 56 | 247 | 0.0 | 1.0 | 0.00 | 0.00 | 0.00 | 85 | 1045.5 |
| 20260903001443 | 56 | 157 | 0.0 | 1.0 | 0.00 | 0.00 | 0.00 | 85 | 1050.0 |
| 20260903000943 | 56 | 157 | 0.0 | 0.0 | 0.00 | 0.00 | 0.00 | 85 | 1052.8 |
| 20260903000642 | 56 | 157 | 0.0 | 0.0 | 0.00 | 0.00 | 0.00 | 85 | 1056.4 |
| 20260903000443 | 56 | 202 | 0.0 | 0.0 | 0.00 | 0.00 | 0.00 | 85 | 1037.5 |
| 20260902235943 | 56 | 180 | 0.0 | 0.0 | 0.00 | 0.00 | 0.00 | 85 | 1057.6 |
| 20260902235443 | 56 | 202 | 0.0 | 0.0 | 0.00 | 0.00 | 0.00 | 85 | 1002.8 |
| 20260902234943 | 56 | 202 | 0.0 | 2.0 | 0.00 | 0.00 | 0.00 | 85 | 1050.5 |
| 20260902234443 | 56 | 202 | 0.0 | 0.0 | 0.00 | 0.00 | 0.00 | 85 | 1053.5 |
| 20260902233943 | 56 | 202 | 0.0 | 0.0 | 0.00 | 0.00 | 0.00 | 85 | 1054.2 |
| 20260902233443 | 56 | 157 | 0.0 | 0.0 | 0.00 | 0.00 | 0.00 | 85 | 1010.6 |
| 20260902233342 | 56 | 157 | 0.0 | 0.0 | 0.00 | 0.00 | 0.00 | 85 | 989.1 |
| 20260902232943 | 56 | 135 | 0.0 | 0.0 | 0.00 | 0.00 | 0.00 | 85 | 1066.9 |
| 20260902232443 | 56 | 180 | 0.0 | 0.0 | 0.00 | 0.00 | 0.00 | 85 | 1070.9 |
| 20260902231943 | 56 | 202 | 0.0 | 0.0 | 0.00 | 0.00 | 0.00 | 85 | 1047.6 |
| 20260902231443 | 56 | 225 | 0.0 | 0.0 | 0.00 | 0.00 | 0.00 | 85 | 1050.1 |
| 20260902230943 | 56 | 202 | 0.0 | 0.0 | 0.00 | 0.00 | 0.00 | 85 | 1059.5 |
| 20260902230443 | 56 | 135 | 0.0 | 0.0 | 0.00 | 0.00 | 0.00 | 85 | 1044.6 |
| 20260902230042 | 56 | 202 | 0.0 | 0.0 | 0.00 | 0.00 | 0.00 | 85 | 1019.6 |
| 20260902225943 | 55 | 247 | 0.0 | 0.0 | 0.00 | 0.00 | 0.00 | 85 | 1064.1 |
| 20260902225443 | 55 | 225 | 0.0 | 0.0 | 0.00 | 0.00 | 0.00 | 84 | 1004.7 |
| 20260902224943 | 55 | 225 | 0.0 | 0.0 | 0.00 | 0.00 | 0.00 | 84 | 1074.2 |
| 20260902224443 | 55 | 180 | 0.0 | 0.0 | 0.00 | 0.00 | 0.00 | 84 | 1014.1 |
| 20260902223943 | 55 | 180 | 0.0 | 0.0 | 0.00 | 0.00 | 0.00 | 84 | 976.4 |
| 20260902223443 | 55 | 157 | 0.0 | 0.0 | 0.00 | 0.00 | 0.00 | 83 | 1053.6 |
| 20260902222943 | 55 | 157 | 0.0 | 0.0 | 0.00 | 0.00 | 0.00 | 83 | 1040.6 |
| 20260902222742 | 55 | 157 | 0.0 | 0.0 | 0.00 | 0.00 | 0.00 | 83 | 1045.5 |
| 20260902222443 | 55 | 135 | 0.0 | 0.0 | 0.00 | 0.00 | 0.00 | 83 | 1043.4 |
| 20260902221943 | 56 | 135 | 0.0 | 0.0 | 0.00 | 0.00 | 0.00 | 83 | 1076.7 |
| 20260902221444 | 56 | 112 | 0.0 | 0.0 | 0.00 | 0.00 | 0.00 | 83 | 1054.7 |
| 20260902220943 | 56 | 112 | 0.0 | 0.0 | 0.00 | 0.00 | 0.00 | 83 | 1010.3 |
| 20260902220443 | 56 | 135 | 0.0 | 0.0 | 0.00 | 0.00 | 0.00 | 82 | 1071.0 |
| 20260902215943 | 56 | 135 | 0.0 | 0.0 | 0.00 | 0.00 | 0.00 | 82 | 1066.4 |
| 20260902215442 | 56 | 135 | 0.0 | 0.0 | 0.00 | 0.00 | 0.00 | 82 | 1076.6 |
| 20260902214943 | 56 | 157 | 0.0 | 0.0 | 0.00 | 0.00 | 0.00 | 82 | 1059.5 |
| 20260902214443 | 57 | 157 | 0.0 | 0.0 | 0.00 | 0.00 | 0.00 | 82 | 1046.3 |
| 20260902213944 | 57 | 135 | 0.0 | 1.0 | 0.00 | 0.00 | 0.00 | 82 | 1052.8 |
| 20260902213443 | 57 | 135 | 1.0 | 1.0 | 0.00 | 0.00 | 0.00 | 82 | 1065.8 |
| 20260902212943 | 57 | 112 | 0.0 | 0.0 | 0.00 | 0.00 | 0.00 | 81 | 1006.7 |
| 20260902212444 | 57 | 135 | 0.0 | 0.0 | 0.00 | 0.00 | 0.00 | 81 | 1063.0 |
| 20260902212142 | 57 | 135 | 0.0 | 0.0 | 0.00 | 0.00 | 0.00 | 81 | 1049.9 |
| 20260902211943 | 57 | 112 | 0.0 | 0.0 | 0.00 | 0.00 | 0.00 | 81 | 1061.0 |
| 20260902211443 | 57 | 135 | 0.0 | 0.0 | 0.00 | 0.00 | 0.00 | 81 | 1012.7 |
| 20260902210943 | 57 | 157 | 0.0 | 0.0 | 0.00 | 0.00 | 0.00 | 80 | 1027.8 |
| 20260902210443 | 57 | 157 | 0.0 | 0.0 | 0.00 | 0.00 | 0.00 | 80 | 1063.4 |
| 20260902205943 | 57 | 135 | 0.0 | 0.0 | 0.00 | 0.00 | 0.00 | 80 | 1031.0 |
| 20260902205443 | 57 | 180 | 0.0 | 0.0 | 0.00 | 0.00 | 0.00 | 79 | 1062.8 |
| 20260902204943 | 58 | 202 | 0.0 | 0.0 | 0.00 | 0.00 | 0.00 | 79 | 1044.9 |
| 20260902204842 | 58 | 202 | 0.0 | 0.0 | 0.00 | 0.00 | 0.00 | 79 | 1066.9 |
| 20260902204443 | 58 | 202 | 0.0 | 0.0 | 0.00 | 0.00 | 0.00 | 79 | 1073.0 |
| 20260902203943 | 58 | 180 | 0.0 | 0.0 | 0.00 | 0.00 | 0.00 | 79 | 1078.2 |
| 20260902203443 | 58 | 180 | 0.0 | 0.0 | 0.00 | 0.00 | 0.00 | 79 | 1060.8 |
| 20260902202943 | 58 | 180 | 0.0 | 0.0 | 0.00 | 0.00 | 0.00 | 78 | 1027.6 |
| 20260902202443 | 58 | 180 | 0.0 | 0.0 | 0.00 | 0.00 | 0.00 | 78 | 1075.9 |
| 20260902201943 | 58 | 180 | 0.0 | 0.0 | 0.00 | 0.00 | 0.00 | 78 | 1023.1 |
| 20260902201542 | 58 | 157 | 0.0 | 0.0 | 0.00 | 0.00 | 0.00 | 78 | 993.6 |
| 20260902201443 | 58 | 157 | 0.0 | 0.0 | 0.00 | 0.00 | 0.00 | 78 | 1034.2 |
| 20260902200943 | 58 | 180 | 0.0 | 0.0 | 0.00 | 0.00 | 0.00 | 78 | 995.2 |
| 20260902200443 | 59 | 180 | 0.0 | 1.0 | 0.00 | 0.00 | 0.00 | 78 | 1050.3 |
| 20260902195943 | 59 | 180 | 0.0 | 0.0 | 0.00 | 0.00 | 0.00 | 77 | 1043.3 |
| 20260902195443 | 59 | 180 | 0.0 | 0.0 | 0.00 | 0.00 | 0.00 | 77 | 1050.1 |
| 20260902194944 | 59 | 157 | 0.0 | 0.0 | 0.00 | 0.00 | 0.00 | 77 | 1076.8 |
| 20260902194443 | 59 | 180 | 0.0 | 0.0 | 0.00 | 0.00 | 0.00 | 76 | 1064.2 |
| 20260902194242 | 59 | 180 | 0.0 | 0.0 | 0.00 | 0.00 | 0.00 | 76 | 1048.8 |
| 20260902193944 | 59 | 157 | 0.0 | 1.0 | 0.00 | 0.00 | 0.00 | 76 | 1062.7 |
| 20260902193443 | 59 | 157 | 0.0 | 2.0 | 0.00 | 0.00 | 0.00 | 75 | 1068.5 |
| 20260902192943 | 59 | 157 | 1.0 | 2.0 | 0.00 | 0.00 | 0.00 | 75 | 1043.8 |
| 20260902192443 | 60 | 67 | 0.0 | 0.0 | 0.00 | 0.00 | 0.00 | 75 | 1030.3 |
| 20260902191944 | 60 | 45 | 0.0 | 0.0 | 0.00 | 0.00 | 0.00 | 74 | 1025.7 |
| 20260902191443 | 60 | 135 | 0.0 | 0.0 | 0.00 | 0.00 | 0.00 | 73 | 1069.2 |
| 20260902190943 | 60 | 135 | 0.0 | 0.0 | 0.00 | 0.00 | 0.00 | 73 | 1047.4 |
| 20260902190444 | 60 | 135 | 0.0 | 0.0 | 0.00 | 0.00 | 0.00 | 73 | 1043.8 |
| 20260902185943 | 60 | 157 | 0.0 | 0.0 | 0.00 | 0.00 | 0.00 | 72 | 1057.5 |
| 20260902185443 | 61 | 135 | 0.0 | 0.0 | 0.00 | 0.00 | 0.00 | 72 | 1070.5 |
| 20260902184944 | 61 | 135 | 0.0 | 0.0 | 0.00 | 0.00 | 0.00 | 72 | 1059.5 |
| 20260902184444 | 61 | 135 | 0.0 | 0.0 | 0.00 | 0.00 | 0.00 | 71 | 1029.7 |
| 20260902183944 | 61 | 135 | 0.0 | 0.0 | 0.00 | 0.00 | 0.00 | 71 | 1063.2 |
| 20260902183643 | 61 | 157 | 0.0 | 0.0 | 0.00 | 0.00 | 0.00 | 70 | 1074.1 |
| 20260902183444 | 61 | 225 | 0.0 | 0.0 | 0.00 | 0.00 | 0.00 | 70 | 1056.4 |
| 20260902182944 | 62 | 247 | 0.0 | 0.0 | 0.00 | 0.00 | 0.00 | 69 | 1074.5 |
| 20260902182444 | 62 | 247 | 0.0 | 0.0 | 0.00 | 0.00 | 0.00 | 68 | 1053.2 |
| 20260902181944 | 62 | 225 | 0.0 | 0.0 | 0.00 | 0.00 | 0.00 | 68 | 1067.1 |
| 20260902181444 | 63 | 247 | 0.0 | 0.0 | 0.00 | 0.00 | 0.00 | 67 | 1055.0 |
| 20260902180944 | 63 | 247 | 0.0 | 0.0 | 0.00 | 0.00 | 0.00 | 66 | 1056.4 |
| 20260902180444 | 63 | 225 | 0.0 | 1.0 | 0.00 | 0.00 | 0.00 | 66 | 1065.8 |
| 20260902180343 | 63 | 225 | 0.0 | 1.0 | 0.00 | 0.00 | 0.00 | 65 | 972.1 |
| 20260902175944 | 63 | 225 | 1.0 | 6.0 | 0.00 | 0.00 | 0.00 | 65 | 1078.4 |
| 20260902175444 | 64 | 247 | 0.0 | 1.0 | 0.00 | 0.00 | 0.00 | 64 | 1053.8 |
| 20260902174944 | 64 | 270 | 1.0 | 1.0 | 0.00 | 0.00 | 0.00 | 64 | 1034.3 |
| 20260902174444 | 64 | 270 | 0.0 | 1.0 | 0.00 | 0.00 | 0.00 | 63 | 1059.5 |
| 20260902173944 | 64 | 270 | 0.0 | 2.0 | 0.00 | 0.00 | 0.00 | 62 | 1056.4 |
| 20260902173444 | 65 | 270 | 2.0 | 2.0 | 0.00 | 0.00 | 0.00 | 61 | 1069.4 |
| 20260902173043 | 65 | 270 | 0.0 | 2.0 | 0.00 | 0.00 | 0.00 | 60 | 989.2 |
| 20260902172944 | 65 | 225 | 0.0 | 2.0 | 0.00 | 0.00 | 0.00 | 60 | 1043.8 |
| 20260902172444 | 66 | 270 | 0.0 | 2.0 | 0.00 | 0.00 | 0.00 | 60 | 1040.6 |
| 20260902171944 | 66 | 225 | 2.0 | 2.0 | 0.00 | 0.00 | 0.00 | 59 | 1065.8 |
| 20260902171444 | 66 | 225 | 0.0 | 2.0 | 0.00 | 0.00 | 0.00 | 58 | 1059.5 |
| 20260902170944 | 67 | 202 | 0.0 | 3.0 | 0.00 | 0.00 | 0.00 | 58 | 1066.5 |
| 20260902170444 | 67 | 270 | 0.0 | 3.0 | 0.00 | 0.00 | 0.00 | 57 | 1025.1 |
| 20260902165944 | 68 | 270 | 2.0 | 5.0 | 0.00 | 0.00 | 0.00 | 57 | 1068.5 |
| 20260902165743 | 68 | 247 | 2.0 | 5.0 | 0.00 | 0.00 | 0.00 | 57 | 1022.5 |
| 20260902165444 | 68 | 270 | 1.0 | 4.0 | 0.00 | 0.00 | 0.00 | 56 | 1053.2 |
| 20260902164944 | 68 | 247 | 3.0 | 6.0 | 0.00 | 0.00 | 0.00 | 56 | 1037.5 |
| 20260902164444 | 69 | 270 | 2.0 | 8.0 | 0.00 | 0.00 | 0.00 | 55 | 1022.3 |
| 20260902163944 | 69 | 292 | 3.0 | 9.0 | 0.00 | 0.00 | 0.00 | 55 | 1020.4 |
| 20260902163444 | 69 | 270 | 6.0 | 8.0 | 0.00 | 0.00 | 0.00 | 54 | 1062.6 |
| 20260902162944 | 70 | 247 | 3.0 | 12.0 | 0.00 | 0.00 | 0.00 | 54 | 1026.0 |
| 20260902162443 | 70 | 270 | 2.0 | 10.0 | 0.00 | 0.00 | 0.00 | 54 | 1062.7 |
| 20260902161944 | 70 | 270 | 3.0 | 10.0 | 0.00 | 0.00 | 0.00 | 53 | 1040.6 |
| 20260902161444 | 71 | 270 | 8.0 | 10.0 | 0.00 | 0.00 | 0.00 | 53 | 1054.5 |
| 20260902160944 | 71 | 247 | 5.0 | 12.0 | 0.00 | 0.00 | 0.00 | 52 | 1055.7 |
| 20260902160444 | 71 | 270 | 8.0 | 12.0 | 0.00 | 0.00 | 0.00 | 52 | 1050.1 |
| 20260902155944 | 71 | 247 | 11.0 | 13.0 | 0.00 | 0.00 | 0.00 | 51 | 1076.7 |
| 20260902155444 | 72 | 270 | 12.0 | 16.0 | 0.00 | 0.00 | 0.00 | 50 | 1034.0 |
| 20260902155143 | 72 | 292 | 12.0 | 16.0 | 0.00 | 0.00 | 0.00 | 50 | 1063.9 |
| 20260902154944 | 72 | 247 | 15.0 | 17.0 | 0.00 | 0.00 | 0.00 | 50 | 1040.0 |
| 20260902154444 | 73 | 247 | 8.0 | 17.0 | 0.00 | 0.00 | 0.00 | 50 | 1087.7 |
| 20260902153944 | 73 | 292 | 10.0 | 15.0 | 0.00 | 0.00 | 0.00 | 50 | 1062.7 |
| 20260902153444 | 73 | 270 | 10.0 | 16.0 | 0.00 | 0.00 | 0.00 | 51 | 1062.7 |
| 20260902152944 | 72 | 270 | 13.0 | 13.0 | 0.00 | 0.00 | 0.00 | 51 | 1065.7 |
| 20260902152444 | 72 | 247 | 9.0 | 12.0 | 0.00 | 0.00 | 0.00 | 51 | 1059.5 |
| 20260902151944 | 72 | 270 | 6.0 | 17.0 | 0.00 | 0.00 | 0.00 | 51 | 1059.4 |
| 20260902151843 | 72 | 45 | 2.0 | 17.0 | 0.00 | 0.00 | 0.00 | 51 | 1036.3 |
| 20260902151444 | 73 | 270 | 3.0 | 15.0 | 0.00 | 0.00 | 0.00 | 50 | 1062.7 |
| 20260902150944 | 73 | 0 | 9.0 | 12.0 | 0.00 | 0.00 | 0.00 | 50 | 1053.2 |
| 20260902150444 | 73 | 270 | 11.0 | 17.0 | 0.00 | 0.00 | 0.00 | 50 | 1078.3 |
| 20260902145944 | 73 | 270 | 14.0 | 14.0 | 0.00 | 0.00 | 0.00 | 50 | 1027.6 |
| 20260902145444 | 73 | 270 | 12.0 | 19.0 | 0.00 | 0.00 | 0.00 | 49 | 1048.5 |
| 20260902144944 | 74 | 270 | 17.0 | 17.0 | 0.00 | 0.00 | 0.00 | 49 | 1050.0 |
| 20260902144543 | 74 | 292 | 5.0 | 18.0 | 0.00 | 0.00 | 0.00 | 49 | 1059.9 |
| 20260902144444 | 74 | 270 | 11.0 | 18.0 | 0.00 | 0.00 | 0.00 | 49 | 1065.8 |
| 20260902143944 | 74 | 22 | 6.0 | 19.0 | 0.00 | 0.00 | 0.00 | 49 | 1059.5 |
| 20260902143444 | 74 | 292 | 12.0 | 17.0 | 0.00 | 0.00 | 0.00 | 50 | 1056.3 |
| 20260902142944 | 73 | 292 | 8.0 | 18.0 | 0.00 | 0.00 | 0.00 | 50 | 1072.1 |
| 20260902142444 | 73 | 292 | 16.0 | 17.0 | 0.00 | 0.00 | 0.00 | 50 | 1050.1 |
| 20260902141944 | 74 | 270 | 17.0 | 17.0 | 0.00 | 0.00 | 0.00 | 50 | 1074.9 |
| 20260902141445 | 74 | 292 | 12.0 | 14.0 | 0.00 | 0.00 | 0.00 | 49 | 1059.3 |
| 20260902141243 | 74 | 270 | 14.0 | 14.0 | 0.00 | 0.00 | 0.00 | 50 | 1053.2 |
| 20260902140944 | 74 | 270 | 11.0 | 12.0 | 0.00 | 0.00 | 0.00 | 50 | 1068.9 |
| 20260902140444 | 73 | 270 | 12.0 | 12.0 | 0.00 | 0.00 | 0.00 | 50 | 1043.8 |
| 20260902135944 | 73 | 270 | 7.0 | 15.0 | 0.00 | 0.00 | 0.00 | 49 | 1053.2 |
| 20260902135444 | 73 | 247 | 6.0 | 17.0 | 0.00 | 0.00 | 0.00 | 49 | 1053.3 |
| 20260902134444 | 75 | 225 | 5.0 | 19.0 | 0.00 | 0.00 | 0.00 | 47 | 1043.8 |
| 20260902133943 | 76 | 270 | 17.0 | 17.0 | 0.00 | 0.00 | 0.00 | 46 | 1065.8 |
| 20260902133444 | 76 | 270 | 19.0 | 19.0 | 0.00 | 0.00 | 0.00 | 46 | 1059.5 |
| 20260902132944 | 76 | 180 | 14.0 | 16.0 | 0.00 | 0.00 | 0.00 | 47 | 1062.7 |
| 20260902132652 | 76 | 270 | 10.0 | 19.0 | 0.00 | 0.00 | 0.00 | 48 | 1069.0 |
| 20260902132444 | 76 | 270 | 10.0 | 19.0 | 0.00 | 0.00 | 0.00 | 48 | 1069.0 |
| 20260902131944 | 76 | 225 | 9.0 | 14.0 | 0.00 | 0.00 | 0.00 | 48 | 1043.8 |
| 20260902131444 | 76 | 292 | 9.0 | 18.0 | 0.00 | 0.00 | 0.00 | 48 | 1043.8 |
| 20260902130944 | 75 | 247 | 16.0 | 21.0 | 0.00 | 0.00 | 0.00 | 48 | 1053.2 |
| 20260902130643 | 75 | 247 | 10.0 | 21.0 | 0.00 | 0.00 | 0.00 | 48 | 1050.0 |
| 20260902130444 | 75 | 247 | 8.0 | 17.0 | 0.00 | 0.00 | 0.00 | 48 | 1059.5 |
| 20260902125944 | 75 | 270 | 15.0 | 17.0 | 0.00 | 0.00 | 0.00 | 49 | 1043.8 |
| 20260902125444 | 74 | 225 | 10.0 | 17.0 | 0.00 | 0.00 | 0.00 | 50 | 1040.6 |
| 20260902124944 | 74 | 270 | 9.0 | 17.0 | 0.00 | 0.00 | 0.00 | 50 | 1053.2 |
| 20260902124444 | 74 | 270 | 2.0 | 12.0 | 0.00 | 0.00 | 0.00 | 51 | 1062.7 |
| 20260902123944 | 73 | 270 | 15.0 | 17.0 | 0.00 | 0.00 | 0.00 | 50 | 1043.8 |
| 20260902123444 | 73 | 270 | 11.0 | 17.0 | 0.00 | 0.00 | 0.00 | 50 | 1040.6 |
| 20260902123343 | 73 | 90 | 3.0 | 17.0 | 0.00 | 0.00 | 0.00 | 50 | 1043.8 |
| 20260902122944 | 74 | 270 | 7.0 | 16.0 | 0.00 | 0.00 | 0.00 | 49 | 1046.9 |
| 20260902121945 | 75 | 247 | 8.0 | 17.0 | 0.00 | 0.00 | 0.00 | 46 | 1053.2 |
| 20260902121444 | 77 | 270 | 10.0 | 25.0 | 0.00 | 0.00 | 0.00 | 43 | 1050.0 |
| 20260902120945 | 79 | 270 | 11.0 | 17.0 | 0.00 | 0.00 | 0.00 | 44 | 1053.2 |
| 20260902120444 | 79 | 247 | 10.0 | 18.0 | 0.00 | 0.00 | 0.00 | 44 | 1021.6 |
| 20260902120043 | 78 | 247 | 9.0 | 18.0 | 0.00 | 0.00 | 0.00 | 45 | 1037.5 |
| 20260902115944 | 78 | 225 | 9.0 | 15.0 | 0.00 | 0.02 | 0.00 | 45 | 1053.2 |
| 20260902115444 | 78 | 247 | 9.0 | 23.0 | 0.00 | 0.02 | 0.00 | 44 | 1043.8 |
| 20260902114944 | 78 | 247 | 12.0 | 16.0 | 0.00 | 0.02 | 0.00 | 45 | 1050.1 |
| 20260902113944 | 77 | 247 | 8.0 | 18.0 | 0.00 | 0.02 | 0.00 | 46 | 1046.9 |
| 20260902113444 | 77 | 292 | 5.0 | 18.0 | 0.00 | 0.02 | 0.00 | 46 | 1034.3 |
| 20260902112945 | 78 | 247 | 14.0 | 15.0 | 0.00 | 0.02 | 0.00 | 46 | 1043.7 |
| 20260902112743 | 77 | 135 | 4.0 | 17.0 | 0.00 | 0.02 | 0.00 | 46 | 1056.4 |
| 20260902112444 | 77 | 292 | 15.0 | 17.0 | 0.00 | 0.02 | 0.00 | 48 | 1050.1 |
| 20260902111944 | 77 | 202 | 10.0 | 16.0 | 0.00 | 0.02 | 0.00 | 47 | 1053.2 |
| 20260902111444 | 77 | 247 | 12.0 | 15.0 | 0.00 | 0.02 | 0.00 | 46 | 1043.8 |
| 20260902110944 | 77 | 247 | 7.0 | 14.0 | 0.00 | 0.02 | 0.00 | 49 | 1062.7 |
| 20260902110444 | 76 | 270 | 6.0 | 15.0 | 0.00 | 0.02 | 0.00 | 48 | 1053.2 |
| 20260902105945 | 75 | 247 | 11.0 | 20.0 | 0.00 | 0.04 | 0.00 | 48 | 1046.9 |
| 20260902105443 | 76 | 270 | 12.0 | 16.0 | 0.00 | 0.04 | 0.00 | 48 | 1037.5 |
| 20260902104944 | 76 | 270 | 6.0 | 19.0 | 0.00 | 0.04 | 0.00 | 48 | 1050.0 |
| 20260902104444 | 77 | 247 | 5.0 | 21.0 | 0.00 | 0.04 | 0.00 | 47 | 1050.1 |
| 20260902103945 | 78 | 270 | 21.0 | 22.0 | 0.00 | 0.04 | 0.00 | 48 | 1046.9 |
| 20260902103444 | 78 | 270 | 10.0 | 18.0 | 0.00 | 0.04 | 0.00 | 49 | 1053.2 |
| 20260902102944 | 78 | 270 | 17.0 | 17.0 | 0.00 | 0.04 | 0.00 | 50 | 1053.2 |
| 20260902102444 | 77 | 225 | 7.0 | 15.0 | 0.00 | 0.04 | 0.00 | 52 | 1018.5 |
| 20260902102143 | 76 | 247 | 10.0 | 18.0 | 0.00 | 0.04 | 0.00 | 51 | 1034.3 |
| 20260902101944 | 76 | 270 | 4.0 | 18.0 | 0.00 | 0.04 | 0.00 | 52 | 1056.4 |
| 20260902101444 | 75 | 315 | 6.0 | 15.0 | 0.00 | 0.04 | 0.00 | 51 | 1037.5 |